createdAt,value
2019-04-23T00:02:54.948Z,6.11
2019-04-23T00:08:08.103Z,6.07
2019-04-23T00:13:08.349Z,5.93
2019-04-23T00:18:22.266Z,6.05
2019-04-23T00:23:28.793Z,6.10
2019-04-23T00:28:38.944Z,6.56
2019-04-23T00:38:47.314Z,6.59
2019-04-23T00:49:05.805Z,6.95
2019-04-23T00:54:14.922Z,6.74
2019-04-23T00:59:11.854Z,6.60
2019-04-23T01:04:27.955Z,6.99
2019-04-23T01:09:29.421Z,6.54
2019-04-23T01:14:44.423Z,6.84
2019-04-23T01:19:43.512Z,7.47
2019-04-23T01:24:35.247Z,6.85
2019-04-23T01:35:17.752Z,7.06
2019-04-23T01:40:19.033Z,7.69
2019-04-23T01:45:20.030Z,7.07
2019-04-23T01:50:37.733Z,7.01
2019-04-23T01:55:34.713Z,7.46
2019-04-23T02:00:41.305Z,7.55
2019-04-23T02:05:48.057Z,7.21
2019-04-23T02:10:58.754Z,7.71
2019-04-23T02:15:57.182Z,7.72
2019-04-23T02:21:15.009Z,7.82
2019-04-23T02:26:31.024Z,8.04
2019-04-23T02:31:51.028Z,7.79
2019-04-23T02:47:10.391Z,8.15
2019-04-23T02:52:05.895Z,8.00
2019-04-23T02:57:13.155Z,7.83
2019-04-23T03:02:35.025Z,7.69
2019-04-23T03:07:39.345Z,7.97
2019-04-23T03:12:31.755Z,7.86
2019-04-23T03:18:01.298Z,7.93
2019-04-23T03:23:03.091Z,8.00
2019-04-23T03:27:49.906Z,8.36
2019-04-23T03:34:42.325Z,7.79
2019-04-23T03:38:36.273Z,7.86
2019-04-23T03:43:33.647Z,7.94
2019-04-23T03:48:27.002Z,7.87
2019-04-23T03:58:38.291Z,7.93
2019-04-23T04:04:06.429Z,8.77
2019-04-23T04:09:00.701Z,8.10
2019-04-23T04:14:30.214Z,7.65
2019-04-23T04:24:29.664Z,7.67
2019-04-23T04:29:39.581Z,7.59
2019-04-23T04:35:09.097Z,7.06
2019-04-23T04:39:53.106Z,7.26
2019-04-23T04:50:02.432Z,7.46
2019-04-23T05:00:20.263Z,8.02
2019-04-23T05:05:58.320Z,7.78
2019-04-23T05:10:43.345Z,8.13
2019-04-23T05:15:40.425Z,8.09
2019-04-23T05:20:38.985Z,8.40
2019-04-23T05:25:49.751Z,8.69
2019-04-23T05:31:01.881Z,8.98
2019-04-23T05:36:08.903Z,9.09
2019-04-23T05:41:16.269Z,8.50
2019-04-23T05:46:27.757Z,9.24
2019-04-23T05:51:38.584Z,8.80
2019-04-23T05:56:29.133Z,8.92
2019-04-23T06:01:54.116Z,9.46
2019-04-23T06:12:01.516Z,9.05
2019-04-23T06:17:07.943Z,9.14
2019-04-23T06:22:22.380Z,9.46
2019-04-23T06:27:13.342Z,9.38
2019-04-23T06:37:49.936Z,9.86
2019-04-23T06:42:49.357Z,9.33
2019-04-23T06:47:57.889Z,9.34
2019-04-23T06:52:55.803Z,8.90
2019-04-23T06:58:17.041Z,9.19
2019-04-23T07:08:26.630Z,9.22
2019-04-23T07:13:31.837Z,9.09
2019-04-23T07:18:36.472Z,9.07
2019-04-23T07:23:54.412Z,8.26
2019-04-23T07:28:53.254Z,8.38
2019-04-23T07:34:01.386Z,8.80
2019-04-23T07:39:06.081Z,8.51
2019-04-23T07:44:12.573Z,8.17
2019-04-23T07:54:32.566Z,8.46
2019-04-23T07:59:37.161Z,8.58
2019-04-23T08:04:56.449Z,8.27
2019-04-23T08:09:54.725Z,7.45
2019-04-23T08:15:01.291Z,7.84
2019-04-23T08:20:09.524Z,7.71
2019-04-23T08:25:12.894Z,8.23
2019-04-23T08:30:05.654Z,7.37
2019-04-23T08:35:27.234Z,7.37
2019-04-23T08:40:33.548Z,7.44
2019-04-23T08:45:35.489Z,7.89
2019-04-23T08:50:47.802Z,6.95
2019-04-23T09:01:05.500Z,6.85
2019-04-23T09:06:10.797Z,6.98
2019-04-23T09:21:37.439Z,6.76
2019-04-23T09:26:32.986Z,6.30
2019-04-23T09:32:00.731Z,7.10
2019-04-23T09:42:08.689Z,6.16
2019-04-23T09:47:17.495Z,6.63
2019-04-23T09:52:21.861Z,6.09
2019-04-23T09:57:24.392Z,5.77
2019-04-23T10:02:28.176Z,6.25
2019-04-23T10:07:28.609Z,6.00
2019-04-23T10:12:24.115Z,6.14
2019-04-23T10:17:29.431Z,5.57
2019-04-23T10:22:39.180Z,5.65
2019-04-23T10:27:45.342Z,5.96
2019-04-23T10:32:51.789Z,6.23
2019-04-23T10:38:04.411Z,6.08
2019-04-23T10:43:07.488Z,5.41
2019-04-23T10:48:32.726Z,5.62
2019-04-23T10:53:38.310Z,5.45
2019-04-23T10:58:47.524Z,5.90
2019-04-23T11:09:29.293Z,5.67
2019-04-23T11:14:11.068Z,5.92
2019-04-23T11:19:31.960Z,5.17
2019-04-23T11:24:41.516Z,5.60
2019-04-23T11:29:38.838Z,5.26
2019-04-23T11:35:07.518Z,5.59
2019-04-23T11:40:04.189Z,5.17
2019-04-23T11:45:06.313Z,4.93
2019-04-23T11:50:18.891Z,5.01
2019-04-23T12:00:13.779Z,4.77
2019-04-23T12:05:41.420Z,4.93
2019-04-23T12:10:45.868Z,5.40
2019-04-23T12:15:39.570Z,4.59
2019-04-23T12:20:48.849Z,5.23
2019-04-23T12:25:58.247Z,5.00
2019-04-23T12:31:05.587Z,4.69
2019-04-23T12:36:21.347Z,4.81
2019-04-23T12:46:39.902Z,4.93
2019-04-23T12:51:38.389Z,5.28
2019-04-23T12:56:57.534Z,5.15
2019-04-23T13:01:56.856Z,5.08
2019-04-23T13:12:10.586Z,5.13
2019-04-23T13:17:24.653Z,5.19
2019-04-23T13:22:23.943Z,5.00
2019-04-23T13:27:23.923Z,4.93
2019-04-23T13:32:39.085Z,5.17
2019-04-23T13:37:49.666Z,5.40
2019-04-23T13:42:57.261Z,5.51
2019-04-23T13:48:03.187Z,5.20
2019-04-23T14:03:26.368Z,5.32
2019-04-23T14:08:24.121Z,5.37
2019-04-23T14:13:44.081Z,5.33
2019-04-23T14:18:55.941Z,5.50
2019-04-23T14:24:03.285Z,5.27
2019-04-23T14:34:06.464Z,5.73
2019-04-23T14:39:15.761Z,5.59
2019-04-23T14:44:16.034Z,5.56
2019-04-23T14:54:50.396Z,5.24
2019-04-23T14:59:37.733Z,5.43
2019-04-23T15:04:47.887Z,5.40
2019-04-23T15:15:10.353Z,5.80
2019-04-23T15:25:29.561Z,5.81
2019-04-23T15:30:14.392Z,5.99
2019-04-23T15:35:40.486Z,5.66
2019-04-23T15:40:36.790Z,5.99
2019-04-23T15:45:44.484Z,5.87
2019-04-23T15:50:59.628Z,6.44
2019-04-23T16:01:18.110Z,6.07
2019-04-23T16:05:46.801Z,5.81
2019-04-23T16:11:15.755Z,6.15
2019-04-23T16:16:26.040Z,6.04
2019-04-23T16:26:50.198Z,6.23
2019-04-23T16:31:51.811Z,5.88
2019-04-23T16:47:12.625Z,5.98
2019-04-23T16:52:21.802Z,6.33
2019-04-23T17:02:40.593Z,6.27
2019-04-23T17:07:53.009Z,9.30
2019-04-23T17:12:54.808Z,6.73
2019-04-23T17:17:55.242Z,6.94
2019-04-23T17:23:00.517Z,7.38
2019-04-23T17:33:27.212Z,6.49
2019-04-23T17:38:34.303Z,7.57
2019-04-23T17:48:35.356Z,7.98
2019-04-23T17:53:42.865Z,7.38
2019-04-23T17:59:00.431Z,7.46
2019-04-23T18:03:57.333Z,7.62
2019-04-23T18:24:27.477Z,8.15
2019-04-23T18:45:04.635Z,8.46
2019-04-23T18:50:15.626Z,8.08
2019-04-23T18:55:24.492Z,8.27
2019-04-23T19:05:43.467Z,7.96
2019-04-23T19:10:37.312Z,8.25
2019-04-23T19:21:00.898Z,8.12
2019-04-23T19:25:49.910Z,8.08
2019-04-23T19:31:01.879Z,8.68
2019-04-23T19:36:19.037Z,8.98
2019-04-23T19:46:52.363Z,8.91
2019-04-23T19:51:42.835Z,9.73
2019-04-23T20:01:53.316Z,9.21
2019-04-23T20:07:12.972Z,9.61
2019-04-23T20:17:23.149Z,10.56
2019-04-23T20:33:18.887Z,10.07
2019-04-23T20:48:01.938Z,10.40
2019-04-23T20:58:09.427Z,10.68
2019-04-23T21:03:38.047Z,10.82
2019-04-23T21:08:28.991Z,10.49
2019-04-23T21:14:01.906Z,10.86
2019-04-23T21:18:42.542Z,11.03
2019-04-23T21:23:44.151Z,11.39
2019-04-23T21:28:54.055Z,11.05
2019-04-23T21:33:59.365Z,11.61
2019-04-23T21:39:08.728Z,12.16
2019-04-23T21:44:13.001Z,11.45
2019-04-23T21:49:41.347Z,11.24
2019-04-23T21:54:41.241Z,10.85
2019-04-23T21:59:41.414Z,10.90
2019-04-23T22:04:52.717Z,10.79
2019-04-23T22:09:57.679Z,10.92
2019-04-23T22:14:50.433Z,11.96
2019-04-23T22:20:21.477Z,13.06
2019-04-23T22:25:18.069Z,12.96
2019-04-23T22:30:30.684Z,14.01
2019-04-23T22:35:20.298Z,14.47
2019-04-23T22:40:41.600Z,14.84
2019-04-23T22:45:43.082Z,15.10
2019-04-23T22:51:06.955Z,16.91
2019-04-23T22:55:56.926Z,19.56
2019-04-23T23:01:19.695Z,17.67
2019-04-23T23:06:20.631Z,15.17
2019-04-23T23:11:28.302Z,13.61
2019-04-23T23:21:54.518Z,12.82
2019-04-23T23:26:55.973Z,13.16
2019-04-23T23:32:02.073Z,13.46
2019-04-23T23:42:09.676Z,12.79
2019-04-23T23:52:35.481Z,12.88
2019-04-23T23:57:32.834Z,12.84
